Time;durP1;ratioP1;P1;durP2;ratioP2;P2;SDS_P1;SDS_P2;PMS_P1;PMS_P2;Temp;Humidity;BMP_temperature;BMP_pressure;BME280_temperature;BME280_humidity;BME280_pressure;Samples;Min_cycle;Max_cycle;Signal;HPM_P1;HPM_P2
2021/06/17 00:00:36;;;;;;;;;;;24.70;99.90;;;;;;4955394;28;20474;-78
2021/06/17 00:03:03;;;;;;;;;;;24.70;99.90;;;;;;4954590;28;20460;-78
2021/06/17 00:05:32;;;;;;;;;;;24.70;99.90;;;;;;4954405;28;20021;-77
2021/06/17 00:08:00;;;;;;;;;;;24.60;99.90;;;;;;4955005;28;20020;-77
2021/06/17 00:10:27;;;;;;;;;;;24.60;99.90;;;;;;4954152;28;19922;-78
2021/06/17 00:12:54;;;;;;;;;;;24.50;99.90;;;;;;4953846;28;20626;-76
2021/06/17 00:15:22;;;;;;;;;;;24.40;99.90;;;;;;4954602;29;20016;-78
2021/06/17 00:17:49;;;;;;;;;;;24.40;99.90;;;;;;4954375;28;20344;-79
2021/06/17 00:20:16;;;;;;;;;;;24.40;99.90;;;;;;4954415;28;20013;-76
2021/06/17 00:22:44;;;;;;;;;;;24.30;99.90;;;;;;4953947;28;19922;-78
2021/06/17 00:25:11;;;;;;;;;;;24.40;99.90;;;;;;4953577;28;20024;-78
2021/06/17 00:27:38;;;;;;;;;;;24.40;99.90;;;;;;4953887;29;19965;-76
2021/06/17 00:30:06;;;;;;;;;;;24.30;99.90;;;;;;4953783;28;20342;-77
2021/06/17 00:32:32;;;;;;;;;;;24.20;99.90;;;;;;4953890;28;20013;-77
2021/06/17 00:34:59;;;;;;;;;;;24.10;99.90;;;;;;4953417;28;20013;-77
2021/06/17 00:37:26;;;;;;;;;;;24.00;99.90;;;;;;4954006;29;20353;-78
2021/06/17 00:39:54;;;;;;;;;;;24.00;99.90;;;;;;4953692;28;20020;-78
2021/06/17 00:42:20;;;;;;;;;;;24.00;99.90;;;;;;4953863;29;19957;-78
2021/06/17 00:44:47;;;;;;;;;;;23.90;99.90;;;;;;4954069;28;20016;-78
2021/06/17 00:47:14;;;;;;;;;;;23.90;99.90;;;;;;4954793;28;20013;-79
2021/06/17 00:49:40;;;;;;;;;;;23.80;99.90;;;;;;4957858;29;20009;-77
2021/06/17 00:52:08;;;;;;;;;;;23.60;99.90;;;;;;4958086;28;19965;-78
2021/06/17 00:54:35;;;;;;;;;;;23.50;99.90;;;;;;4958037;28;19954;-78
2021/06/17 00:57:05;;;;;;;;;;;23.50;99.90;;;;;;4958381;28;20024;-78
2021/06/17 00:59:31;;;;;;;;;;;23.40;99.90;;;;;;4958473;29;19922;-79
2021/06/17 01:01:58;;;;;;;;;;;23.40;99.90;;;;;;4958624;28;19981;-79
2021/06/17 01:04:25;;;;;;;;;;;23.40;99.90;;;;;;4958146;29;20021;-79
2021/06/17 01:06:52;;;;;;;;;;;23.40;99.90;;;;;;4957479;28;20419;-79
2021/06/17 01:09:24;;;;;;;;;;;23.40;99.90;;;;;;4957342;28;20356;-79
2021/06/17 01:11:57;;;;;;;;;;;23.30;99.90;;;;;;4957081;28;20017;-79
2021/06/17 01:14:27;;;;;;;;;;;23.30;99.90;;;;;;4956930;28;20386;-79
2021/06/17 01:16:58;;;;;;;;;;;23.30;99.90;;;;;;4956636;28;19973;-78
2021/06/17 01:19:32;;;;;;;;;;;23.30;99.90;;;;;;4956161;28;19926;-78
2021/06/17 01:22:08;;;;;;;;;;;23.30;99.90;;;;;;4956544;29;20339;-77
2021/06/17 01:24:41;;;;;;;;;;;23.30;99.90;;;;;;4956124;29;20442;-77
2021/06/17 01:27:21;;;;;;;;;;;23.30;99.90;;;;;;4956449;29;20294;-79
2021/06/17 01:29:52;;;;;;;;;;;23.30;99.90;;;;;;4955955;28;20009;-77
2021/06/17 01:32:20;;;;;;;;;;;23.30;99.90;;;;;;4956465;28;20382;-77
2021/06/17 01:34:48;;;;;;;;;;;23.30;99.90;;;;;;4956131;28;19924;-78
2021/06/17 01:37:17;;;;;;;;;;;23.30;99.90;;;;;;4956499;29;19922;-78
2021/06/17 01:39:45;;;;;;;;;;;23.30;99.90;;;;;;4956393;29;19922;-78
2021/06/17 01:42:13;;;;;;;;;;;23.20;99.90;;;;;;4956493;28;19961;-78
2021/06/17 01:44:40;;;;;;;;;;;23.20;99.90;;;;;;4956035;28;20017;-78
2021/06/17 01:47:08;;;;;;;;;;;23.20;99.90;;;;;;4956233;28;20497;-77
2021/06/17 01:49:36;;;;;;;;;;;23.10;99.90;;;;;;4956834;28;19926;-80
2021/06/17 01:52:03;;;;;;;;;;;23.10;99.90;;;;;;4955857;28;20406;-78
2021/06/17 01:54:30;;;;;;;;;;;23.10;99.90;;;;;;4955672;28;20005;-77
2021/06/17 01:56:58;;;;;;;;;;;23.00;99.90;;;;;;4956028;28;20423;-78
2021/06/17 01:59:25;;;;;;;;;;;23.00;99.90;;;;;;4955292;28;19989;-77
2021/06/17 02:01:54;;;;;;;;;;;22.90;99.90;;;;;;4955633;28;19923;-78
2021/06/17 02:04:22;;;;;;;;;;;22.90;99.90;;;;;;4954956;28;19923;-77
2021/06/17 02:06:49;;;;;;;;;;;22.80;99.90;;;;;;4955065;28;19922;-78
2021/06/17 02:09:16;;;;;;;;;;;22.80;99.90;;;;;;4955278;28;20021;-80
2021/06/17 02:11:43;;;;;;;;;;;22.70;99.90;;;;;;4954996;28;20008;-77
2021/06/17 02:14:12;;;;;;;;;;;22.70;99.90;;;;;;4954739;29;20458;-80
2021/06/17 02:16:40;;;;;;;;;;;22.60;99.90;;;;;;4954909;28;20012;-77
2021/06/17 02:19:07;;;;;;;;;;;22.60;99.90;;;;;;4954605;29;20425;-78
2021/06/17 02:21:35;;;;;;;;;;;22.50;99.90;;;;;;4954983;28;19929;-79
2021/06/17 02:24:03;;;;;;;;;;;22.50;99.90;;;;;;4954534;28;20359;-77
2021/06/17 02:26:31;;;;;;;;;;;22.60;99.90;;;;;;4954685;28;19965;-77
2021/06/17 02:28:59;;;;;;;;;;;22.50;99.90;;;;;;4982963;23;19989;-76
2021/06/17 02:31:29;;;;;;;;;;;22.50;99.90;;;;;;4976453;28;19977;-80
2021/06/17 02:33:55;;;;;;;;;;;22.50;99.90;;;;;;4976091;28;20024;-78
2021/06/17 02:36:25;;;;;;;;;;;22.40;99.90;;;;;;4975408;28;19921;-78
2021/06/17 02:38:56;;;;;;;;;;;22.40;99.90;;;;;;4977294;28;19970;-78
2021/06/17 02:41:23;;;;;;;;;;;22.40;99.90;;;;;;4977818;28;19980;-82
2021/06/17 02:43:53;;;;;;;;;;;22.40;99.90;;;;;;4982410;28;19953;-83
2021/06/17 02:46:20;;;;;;;;;;;22.40;99.90;;;;;;4982576;28;20008;-84
2021/06/17 02:48:47;;;;;;;;;;;22.30;99.90;;;;;;4983125;28;19957;-84
2021/06/17 02:51:14;;;;;;;;;;;22.20;99.90;;;;;;4982391;28;19954;-82
2021/06/17 02:53:40;;;;;;;;;;;22.30;99.90;;;;;;4983917;28;20381;-84
2021/06/17 02:56:11;;;;;;;;;;;22.20;99.90;;;;;;4982886;28;19922;-83
2021/06/17 02:59:00;;;;;;;;;;;22.30;99.90;;;;;;4984445;28;19968;-83
2021/06/17 03:01:28;;;;;;;;;;;22.20;99.90;;;;;;4981415;28;20390;-81
2021/06/17 03:03:57;;;;;;;;;;;22.20;99.90;;;;;;4980970;28;19922;-83
2021/06/17 03:06:25;;;;;;;;;;;22.10;99.90;;;;;;4982560;28;19976;-82
2021/06/17 03:08:55;;;;;;;;;;;22.10;99.90;;;;;;4981513;28;19965;-81
2021/06/17 03:11:25;;;;;;;;;;;22.00;99.90;;;;;;4982398;28;20347;-83
2021/06/17 03:13:55;;;;;;;;;;;22.00;99.90;;;;;;4984674;28;19979;-81
2021/06/17 03:16:24;;;;;;;;;;;22.10;99.90;;;;;;4985716;28;19929;-82
2021/06/17 03:18:51;;;;;;;;;;;22.00;99.90;;;;;;4983071;28;19957;-82
2021/06/17 03:21:23;;;;;;;;;;;22.10;99.90;;;;;;4985127;28;20012;-84
2021/06/17 03:23:50;;;;;;;;;;;22.10;99.90;;;;;;4984166;28;19922;-82
2021/06/17 03:26:17;;;;;;;;;;;22.00;99.90;;;;;;4983312;28;19953;-83
2021/06/17 03:28:46;;;;;;;;;;;21.90;99.90;;;;;;4988577;28;19949;-82
2021/06/17 03:31:14;;;;;;;;;;;21.90;99.90;;;;;;5004764;28;19949;-82
2021/06/17 03:33:41;;;;;;;;;;;22.00;99.90;;;;;;5004923;28;20382;-83
2021/06/17 03:36:09;;;;;;;;;;;22.00;99.90;;;;;;5005617;28;19922;-83
2021/06/17 03:38:36;;;;;;;;;;;22.00;99.90;;;;;;5010349;28;20016;-83
2021/06/17 03:41:05;;;;;;;;;;;22.00;99.90;;;;;;5013831;28;19921;-82
2021/06/17 03:43:33;;;;;;;;;;;21.90;99.90;;;;;;5010186;28;19921;-84
2021/06/17 03:46:01;;;;;;;;;;;21.90;99.90;;;;;;5007933;28;20329;-83
2021/06/17 03:48:29;;;;;;;;;;;21.90;99.90;;;;;;5008584;28;20017;-81
2021/06/17 03:50:56;;;;;;;;;;;21.90;99.90;;;;;;5011928;28;19964;-82
2021/06/17 03:53:23;;;;;;;;;;;21.90;99.90;;;;;;5001735;28;19972;-84
2021/06/17 03:55:53;;;;;;;;;;;21.90;99.90;;;;;;5003381;28;19968;-84
2021/06/17 03:58:22;;;;;;;;;;;22.00;99.90;;;;;;5006481;28;19922;-83
2021/06/17 04:00:49;;;;;;;;;;;22.10;99.90;;;;;;5002634;28;19925;-82
2021/06/17 04:03:17;;;;;;;;;;;22.10;99.90;;;;;;5000903;28;20435;-82
2021/06/17 04:05:43;;;;;;;;;;;22.20;99.90;;;;;;4999144;28;20033;-82
2021/06/17 04:08:11;;;;;;;;;;;22.40;99.90;;;;;;4999437;28;20019;-82
2021/06/17 04:10:39;;;;;;;;;;;22.60;99.90;;;;;;4999971;28;20049;-83
2021/06/17 04:13:06;;;;;;;;;;;23.00;99.90;;;;;;4999364;28;19972;-83
2021/06/17 04:15:33;;;;;;;;;;;23.40;99.90;;;;;;4999989;28;19922;-82
2021/06/17 04:18:01;;;;;;;;;;;23.80;99.90;;;;;;5001186;28;19964;-84
2021/06/17 04:20:32;;;;;;;;;;;24.10;99.90;;;;;;5001444;28;20354;-80
2021/06/17 04:23:00;;;;;;;;;;;24.40;99.90;;;;;;5002176;28;19960;-78
2021/06/17 04:25:27;;;;;;;;;;;24.70;99.90;;;;;;5006276;28;19965;-80
2021/06/17 04:27:56;;;;;;;;;;;24.90;99.90;;;;;;5006572;28;19921;-80
2021/06/17 04:30:25;;;;;;;;;;;25.20;99.90;;;;;;5005451;28;20294;-82
2021/06/17 04:32:52;;;;;;;;;;;25.40;99.90;;;;;;5005033;28;19953;-87
2021/06/17 04:35:20;;;;;;;;;;;25.60;99.90;;;;;;5003042;28;20013;-86
2021/06/17 04:37:49;;;;;;;;;;;25.70;99.90;;;;;;5004159;28;19986;-86
2021/06/17 04:40:16;;;;;;;;;;;25.60;99.90;;;;;;5003912;28;19956;-86
2021/06/17 04:42:43;;;;;;;;;;;25.60;99.90;;;;;;5004785;28;20032;-85
2021/06/17 04:45:10;;;;;;;;;;;25.60;99.90;;;;;;5004161;28;19922;-85
2021/06/17 04:47:38;;;;;;;;;;;25.50;99.90;;;;;;5007423;28;20007;-85
2021/06/17 04:50:05;;;;;;;;;;;25.40;99.90;;;;;;5004580;28;19922;-86
2021/06/17 04:52:35;;;;;;;;;;;25.20;99.90;;;;;;5007087;28;19921;-84
2021/06/17 04:55:04;;;;;;;;;;;25.20;99.90;;;;;;5005210;28;19953;-85
2021/06/17 04:57:30;;;;;;;;;;;25.10;99.90;;;;;;5005476;28;20212;-84
2021/06/17 04:59:59;;;;;;;;;;;25.10;99.90;;;;;;5005136;28;19976;-85
2021/06/17 05:02:25;;;;;;;;;;;25.30;99.90;;;;;;5005936;28;19929;-85
2021/06/17 05:04:52;;;;;;;;;;;25.50;99.90;;;;;;5004500;28;19947;-83
2021/06/17 05:07:39;;;;;;;;;;;25.70;99.90;;;;;;5002288;28;19929;-83
2021/06/17 05:12:53;;;;;;;;;;;26.00;99.90;;;;;;5003011;28;19976;-80
2021/06/17 05:15:20;;;;;;;;;;;26.20;99.90;;;;;;5003461;28;19922;-82
2021/06/17 05:17:47;;;;;;;;;;;26.40;99.90;;;;;;5002785;28;19981;-82
2021/06/17 05:20:14;;;;;;;;;;;26.80;99.90;;;;;;5005804;28;19922;-82
2021/06/17 05:22:42;;;;;;;;;;;27.00;99.90;;;;;;5006376;28;20406;-83
2021/06/17 05:25:10;;;;;;;;;;;27.30;99.90;;;;;;5005832;28;19968;-83
2021/06/17 05:27:37;;;;;;;;;;;27.70;99.90;;;;;;5001202;28;19985;-79
2021/06/17 05:30:04;;;;;;;;;;;27.90;99.90;;;;;;5001770;28;20036;-81
2021/06/17 05:32:31;;;;;;;;;;;28.20;99.90;;;;;;5003920;28;20300;-82
2021/06/17 05:34:58;;;;;;;;;;;28.40;99.90;;;;;;5000798;28;19960;-81
2021/06/17 05:37:24;;;;;;;;;;;28.50;99.90;;;;;;5003379;28;20008;-83
2021/06/17 05:39:51;;;;;;;;;;;29.00;99.90;;;;;;5004211;28;19985;-80
2021/06/17 05:42:19;;;;;;;;;;;29.30;99.90;;;;;;5003924;28;20004;-82
2021/06/17 05:44:46;;;;;;;;;;;29.80;99.90;;;;;;5005553;28;19976;-80
2021/06/17 05:47:13;;;;;;;;;;;30.10;99.90;;;;;;5001625;28;19976;-81
2021/06/17 05:49:40;;;;;;;;;;;30.60;99.90;;;;;;4999603;28;19921;-79
2021/06/17 05:52:07;;;;;;;;;;;30.90;99.90;;;;;;5002050;28;19976;-80
2021/06/17 05:54:34;;;;;;;;;;;31.40;99.90;;;;;;5001211;28;19949;-78
2021/06/17 05:57:00;;;;;;;;;;;31.90;99.90;;;;;;5004602;28;20026;-80
2021/06/17 05:59:28;;;;;;;;;;;31.80;99.90;;;;;;5018577;28;19956;-80
2021/06/17 06:01:55;;;;;;;;;;;31.70;99.90;;;;;;5018187;28;19921;-79
2021/06/17 06:04:22;;;;;;;;;;;31.80;99.90;;;;;;5018132;28;19910;-79
2021/06/17 06:06:48;;;;;;;;;;;31.80;99.90;;;;;;5017935;28;19920;-79
2021/06/17 06:09:15;;;;;;;;;;;31.70;99.90;;;;;;5011666;28;19922;-80
2021/06/17 06:11:42;;;;;;;;;;;31.70;99.90;;;;;;5003671;28;19922;-81
2021/06/17 06:14:08;;;;;;;;;;;30.90;99.90;;;;;;5001898;28;19960;-80
2021/06/17 06:16:36;;;;;;;;;;;30.50;99.90;;;;;;5001236;28;19964;-80
2021/06/17 06:19:06;;;;;;;;;;;30.00;99.90;;;;;;5000502;28;19922;-79
2021/06/17 06:21:33;;;;;;;;;;;29.50;99.90;;;;;;4999743;28;19972;-80
2021/06/17 06:23:59;;;;;;;;;;;29.00;99.90;;;;;;5000502;28;19961;-80
2021/06/17 06:26:26;;;;;;;;;;;29.00;99.90;;;;;;4999746;28;19965;-79
2021/06/17 06:28:55;;;;;;;;;;;29.30;99.90;;;;;;4999664;28;19977;-76
2021/06/17 06:31:22;;;;;;;;;;;29.70;99.90;;;;;;5000614;28;19956;-80
2021/06/17 06:33:50;;;;;;;;;;;30.30;99.90;;;;;;4998566;28;19968;-78
2021/06/17 06:36:17;;;;;;;;;;;30.70;99.90;;;;;;4999591;28;19993;-80
2021/06/17 06:38:43;;;;;;;;;;;30.80;99.90;;;;;;4999206;28;20005;-80
2021/06/17 06:41:10;;;;;;;;;;;31.00;99.90;;;;;;5000069;28;20008;-80
2021/06/17 06:43:37;;;;;;;;;;;31.10;99.90;;;;;;4999696;28;20029;-80
2021/06/17 06:46:03;;;;;;;;;;;31.10;99.90;;;;;;4998637;28;19961;-80
2021/06/17 06:48:31;;;;;;;;;;;31.50;99.90;;;;;;5000295;28;20275;-80
2021/06/17 06:50:59;;;;;;;;;;;31.80;99.90;;;;;;4998760;28;19921;-79
2021/06/17 06:53:25;;;;;;;;;;;31.80;99.90;;;;;;4997161;28;19961;-80
2021/06/17 06:55:52;;;;;;;;;;;32.00;99.90;;;;;;4997754;28;19957;-80
2021/06/17 06:58:19;;;;;;;;;;;31.90;99.90;;;;;;4996828;28;19984;-79
2021/06/17 07:00:45;;;;;;;;;;;31.80;99.90;;;;;;4996585;28;20361;-80
2021/06/17 07:03:12;;;;;;;;;;;32.00;99.90;;;;;;4996592;28;20357;-80
2021/06/17 07:05:40;;;;;;;;;;;32.40;99.90;;;;;;4996714;28;19944;-79
2021/06/17 07:08:11;;;;;;;;;;;32.90;99.90;;;;;;4998019;28;19926;-81
2021/06/17 07:10:40;;;;;;;;;;;33.10;99.90;;;;;;4999637;28;20001;-79
2021/06/17 07:13:07;;;;;;;;;;;32.80;99.90;;;;;;5000581;28;19925;-80
2021/06/17 07:15:34;;;;;;;;;;;32.80;99.90;;;;;;4999487;28;19921;-79
2021/06/17 07:18:00;;;;;;;;;;;32.80;99.90;;;;;;4998512;28;20024;-80
2021/06/17 07:20:27;;;;;;;;;;;33.10;99.90;;;;;;5000395;28;20012;-79
2021/06/17 07:22:56;;;;;;;;;;;33.40;99.90;;;;;;4998969;28;19921;-82
2021/06/17 07:25:24;;;;;;;;;;;33.50;99.90;;;;;;5002840;28;20349;-81
2021/06/17 07:27:51;;;;;;;;;;;33.10;99.90;;;;;;5001396;28;19922;-83
2021/06/17 07:30:18;;;;;;;;;;;33.00;99.90;;;;;;5003591;28;19922;-82
2021/06/17 07:32:45;;;;;;;;;;;32.90;99.90;;;;;;5008485;28;19972;-81
2021/06/17 07:35:13;;;;;;;;;;;33.00;99.90;;;;;;5007749;28;20004;-83
2021/06/17 07:37:39;;;;;;;;;;;33.00;99.90;;;;;;5007509;28;19929;-82
2021/06/17 07:40:07;;;;;;;;;;;33.00;99.90;;;;;;5007529;28;19922;-82
2021/06/17 07:42:35;;;;;;;;;;;32.90;99.90;;;;;;5003577;28;20008;-83
2021/06/17 07:45:02;;;;;;;;;;;33.10;99.90;;;;;;5003915;28;19977;-81
2021/06/17 07:47:29;;;;;;;;;;;33.40;99.90;;;;;;5002501;28;20394;-84
2021/06/17 07:49:55;;;;;;;;;;;33.30;99.90;;;;;;5001237;28;19921;-82
2021/06/17 07:52:22;;;;;;;;;;;33.40;99.90;;;;;;5002673;28;20317;-82
2021/06/17 07:54:49;;;;;;;;;;;33.90;99.90;;;;;;4999947;28;19969;-83
2021/06/17 07:57:16;;;;;;;;;;;33.90;99.90;;;;;;4999833;28;19926;-82
2021/06/17 07:59:44;;;;;;;;;;;33.60;99.90;;;;;;4999872;28;19972;-80
2021/06/17 08:02:10;;;;;;;;;;;33.30;99.90;;;;;;5002746;28;19999;-80
2021/06/17 08:04:37;;;;;;;;;;;33.50;99.90;;;;;;4999609;28;19961;-82
2021/06/17 08:07:04;;;;;;;;;;;34.00;99.90;;;;;;4999578;28;19972;-82
2021/06/17 08:09:31;;;;;;;;;;;34.70;99.90;;;;;;5000480;28;19985;-82
2021/06/17 08:11:58;;;;;;;;;;;35.10;99.90;;;;;;4999931;28;19926;-84
2021/06/17 08:14:25;;;;;;;;;;;35.10;99.90;;;;;;4998314;28;20367;-81
2021/06/17 08:16:54;;;;;;;;;;;35.10;99.80;;;;;;5000072;28;19922;-82
2021/06/17 08:19:27;;;;;;;;;;;35.00;99.90;;;;;;4999723;28;19965;-79
2021/06/17 08:21:53;;;;;;;;;;;35.00;99.90;;;;;;5000184;28;20012;-80
2021/06/17 08:24:20;;;;;;;;;;;34.90;99.70;;;;;;5000656;28;19972;-81
2021/06/17 08:26:47;;;;;;;;;;;34.80;99.60;;;;;;4990893;28;19979;-82
2021/06/17 08:29:14;;;;;;;;;;;34.70;99.70;;;;;;4991714;28;19930;-82
2021/06/17 08:31:43;;;;;;;;;;;34.50;99.50;;;;;;4992397;28;19974;-82
2021/06/17 08:34:11;;;;;;;;;;;34.40;99.60;;;;;;4990492;28;19922;-81
2021/06/17 08:36:38;;;;;;;;;;;34.60;99.90;;;;;;4992180;28;20113;-81
2021/06/17 08:39:14;;;;;;;;;;;35.30;99.80;;;;;;4988011;23;19932;-81
2021/06/17 08:41:41;;;;;;;;;;;35.70;99.60;;;;;;4951295;28;19978;-80
2021/06/17 08:44:08;;;;;;;;;;;36.30;98.60;;;;;;4943314;29;19966;-82
2021/06/17 08:46:35;;;;;;;;;;;36.70;98.50;;;;;;4952952;28;20014;-80
2021/06/17 08:49:02;;;;;;;;;;;36.60;96.90;;;;;;4951847;28;19923;-82
2021/06/17 08:51:31;;;;;;;;;;;36.60;97.30;;;;;;4960559;29;19931;-82
2021/06/17 08:53:57;;;;;;;;;;;36.80;97.20;;;;;;4956573;29;20017;-79
2021/06/17 08:56:25;;;;;;;;;;;37.10;97.00;;;;;;4949901;29;20017;-81
2021/06/17 08:58:53;;;;;;;;;;;37.30;96.80;;;;;;4950685;28;20370;-81
2021/06/17 09:01:22;;;;;;;;;;;37.60;95.60;;;;;;4949601;29;20390;-81
2021/06/17 09:03:48;;;;;;;;;;;37.60;93.70;;;;;;4946873;29;19922;-81
2021/06/17 09:06:17;;;;;;;;;;;37.70;94.00;;;;;;4948488;29;19993;-80
2021/06/17 09:09:02;;;;;;;;;;;37.80;94.20;;;;;;4948327;28;20300;-80
2021/06/17 09:11:34;;;;;;;;;;;37.90;94.60;;;;;;4954717;28;19933;-81
2021/06/17 09:14:14;;;;;;;;;;;37.70;94.70;;;;;;4943697;29;20336;-83
2021/06/17 09:16:41;;;;;;;;;;;37.60;94.30;;;;;;4954122;29;20033;-84
2021/06/17 09:19:08;;;;;;;;;;;37.80;94.50;;;;;;4958210;28;20346;-82
2021/06/17 09:21:38;;;;;;;;;;;37.60;93.10;;;;;;4967797;28;19922;-81
2021/06/17 09:24:07;;;;;;;;;;;37.50;91.90;;;;;;4970223;28;19923;-80
2021/06/17 09:26:33;;;;;;;;;;;37.60;92.00;;;;;;4967246;28;19953;-80
2021/06/17 09:29:03;;;;;;;;;;;37.50;91.60;;;;;;4969496;28;20358;-82
2021/06/17 09:31:31;;;;;;;;;;;37.40;93.10;;;;;;4968636;28;19922;-81
2021/06/17 09:37:01;;;;;;;;;;;37.70;91.90;;;;;;4940386;28;19922;-81
2021/06/17 09:39:43;;;;;;;;;;;38.00;91.70;;;;;;4966937;28;19937;-78
2021/06/17 09:45:15;;;;;;;;;;;37.90;90.20;;;;;;4972375;28;19948;-80
2021/06/17 09:48:12;;;;;;;;;;;;;;;;;;;;;
2021/06/17 09:50:56;;;;;;;;;;;37.60;88.40;;;;;;4969206;28;19981;-81
2021/06/17 09:53:33;;;;;;;;;;;37.20;90.10;;;;;;4965350;28;20025;-82
2021/06/17 09:56:08;;;;;;;;;;;37.10;90.40;;;;;;4971529;28;19922;-81
2021/06/17 09:58:39;;;;;;;;;;;36.80;90.50;;;;;;4966769;28;19969;-83
2021/06/17 10:01:16;;;;;;;;;;;36.60;90.30;;;;;;4967272;28;19933;-82
2021/06/17 10:03:53;;;;;;;;;;;36.70;91.10;;;;;;4973428;28;19932;-80
2021/06/17 10:06:25;;;;;;;;;;;36.60;87.90;;;;;;4961957;28;20276;-80
2021/06/17 10:08:54;;;;;;;;;;;36.30;89.90;;;;;;4956667;29;20035;-81
2021/06/17 10:11:36;;;;;;;;;;;36.20;90.70;;;;;;4961849;29;19923;-81
2021/06/17 10:14:03;;;;;;;;;;;36.00;90.20;;;;;;4963447;28;19923;-82
2021/06/17 10:16:32;;;;;;;;;;;35.70;92.00;;;;;;4965137;28;19922;-82
2021/06/17 10:18:58;;;;;;;;;;;35.30;92.60;;;;;;4959200;28;19990;-82
2021/06/17 10:21:25;;;;;;;;;;;35.10;92.30;;;;;;4961578;28;19950;-80
2021/06/17 10:23:52;;;;;;;;;;;34.80;93.10;;;;;;4962983;28;19977;-81
2021/06/17 10:26:21;;;;;;;;;;;34.70;93.80;;;;;;4963990;29;19969;-81
2021/06/17 10:28:49;;;;;;;;;;;34.70;94.10;;;;;;4964460;28;20402;-82
2021/06/17 10:31:31;;;;;;;;;;;34.60;93.80;;;;;;4962858;28;19926;-81
2021/06/17 10:33:57;;;;;;;;;;;34.50;93.40;;;;;;4963301;28;19971;-81
2021/06/17 10:36:25;;;;;;;;;;;34.40;93.10;;;;;;4962566;29;19926;-79
2021/06/17 10:39:20;;;;;;;;;;;34.40;93.80;;;;;;4952946;28;19929;-80
2021/06/17 10:42:13;;;;;;;;;;;34.50;94.30;;;;;;4946942;28;19926;-79
2021/06/17 10:44:45;;;;;;;;;;;34.50;93.10;;;;;;4946343;28;20471;-81
2021/06/17 10:47:30;;;;;;;;;;;34.60;93.70;;;;;;4956457;28;20022;-80
2021/06/17 10:50:04;;;;;;;;;;;34.60;93.00;;;;;;4958303;28;19926;-80
2021/06/17 10:52:31;;;;;;;;;;;34.80;95.10;;;;;;4958134;28;19988;-81
2021/06/17 10:54:58;;;;;;;;;;;34.80;93.30;;;;;;4959784;28;19964;-82
2021/06/17 10:57:44;;;;;;;;;;;34.90;93.10;;;;;;4958724;28;19933;-82
2021/06/17 11:00:29;;;;;;;;;;;34.80;93.90;;;;;;4961951;28;19969;-83
2021/06/17 11:02:58;;;;;;;;;;;34.80;93.20;;;;;;4962828;28;19965;-81
2021/06/17 11:05:53;;;;;;;;;;;34.80;93.20;;;;;;4962586;28;19922;-80
2021/06/17 11:08:22;;;;;;;;;;;34.80;93.10;;;;;;4961076;29;20347;-81
2021/06/17 11:10:51;;;;;;;;;;;34.80;93.20;;;;;;4960501;28;19926;-81
2021/06/17 11:13:26;;;;;;;;;;;34.80;93.00;;;;;;4954919;29;20302;-81
2021/06/17 11:15:53;;;;;;;;;;;34.90;92.40;;;;;;4954208;28;19922;-81
2021/06/17 11:18:38;;;;;;;;;;;35.00;92.70;;;;;;4951295;29;19946;-80
2021/06/17 11:21:07;;;;;;;;;;;34.90;93.00;;;;;;4954584;29;19922;-79
2021/06/17 11:23:33;;;;;;;;;;;34.90;93.10;;;;;;4951238;29;19973;-80
2021/06/17 11:26:00;;;;;;;;;;;34.90;94.00;;;;;;4950068;29;19922;-79
2021/06/17 11:28:42;;;;;;;;;;;35.10;94.60;;;;;;4954258;29;19930;-80
2021/06/17 11:31:11;;;;;;;;;;;35.10;93.10;;;;;;4954074;28;19973;-79
2021/06/17 11:33:45;;;;;;;;;;;35.10;93.40;;;;;;4958495;29;20010;-80
2021/06/17 11:36:17;;;;;;;;;;;35.20;92.30;;;;;;4960092;29;19923;-83
2021/06/17 11:38:44;;;;;;;;;;;35.20;92.80;;;;;;4953896;28;20415;-79
2021/06/17 11:41:16;;;;;;;;;;;35.40;92.00;;;;;;4955906;29;19922;-80
2021/06/17 11:43:43;;;;;;;;;;;35.30;92.70;;;;;;4953580;29;20616;-80
2021/06/17 11:46:20;;;;;;;;;;;35.40;93.00;;;;;;4951844;29;19968;-81
2021/06/17 11:48:54;;;;;;;;;;;35.50;92.80;;;;;;4953328;28;19929;-82
2021/06/17 11:51:23;;;;;;;;;;;35.60;92.20;;;;;;4962876;28;19922;-82
2021/06/17 11:53:51;;;;;;;;;;;35.60;91.80;;;;;;4958087;29;19988;-81
2021/06/17 11:56:24;;;;;;;;;;;35.70;92.70;;;;;;4943479;29;20358;-81
2021/06/17 11:58:51;;;;;;;;;;;35.90;92.20;;;;;;4951207;29;20009;-79
2021/06/17 12:01:18;;;;;;;;;;;36.00;92.10;;;;;;4963133;28;19926;-81
2021/06/17 12:03:52;;;;;;;;;;;36.00;92.00;;;;;;4963106;29;20375;-80
2021/06/17 12:06:19;;;;;;;;;;;35.90;92.20;;;;;;4962439;28;20005;-83
2021/06/17 12:08:47;;;;;;;;;;;35.90;91.30;;;;;;4961406;28;19929;-80
2021/06/17 12:11:18;;;;;;;;;;;35.90;91.90;;;;;;4961540;28;20033;-80
2021/06/17 12:13:48;;;;;;;;;;;35.70;91.00;;;;;;4953111;29;19929;-80
2021/06/17 12:16:17;;;;;;;;;;;35.70;91.70;;;;;;4951060;28;19927;-79
2021/06/17 12:18:47;;;;;;;;;;;35.80;92.10;;;;;;4951276;29;20013;-81
2021/06/17 12:21:21;;;;;;;;;;;36.00;92.70;;;;;;4950381;29;19933;-83
2021/06/17 12:23:49;;;;;;;;;;;36.10;93.40;;;;;;4953023;28;19933;-81
2021/06/17 12:26:16;;;;;;;;;;;36.40;92.70;;;;;;4952649;29;19993;-84
2021/06/17 12:28:49;;;;;;;;;;;36.50;90.70;;;;;;4952878;28;19933;-81
2021/06/17 12:31:27;;;;;;;;;;;36.60;91.10;;;;;;4951831;29;20377;-78
2021/06/17 12:34:08;;;;;;;;;;;36.70;91.30;;;;;;4959425;28;19965;-79
2021/06/17 12:36:35;;;;;;;;;;;36.60;90.70;;;;;;4951879;29;19966;-80
2021/06/17 12:39:10;;;;;;;;;;;36.60;92.70;;;;;;4954756;29;19949;-80
2021/06/17 12:41:41;;;;;;;;;;;36.60;92.80;;;;;;4959635;29;19927;-81
2021/06/17 12:44:08;;;;;;;;;;;36.60;91.50;;;;;;4961621;28;20347;-79
2021/06/17 12:46:38;;;;;;;;;;;36.60;91.60;;;;;;4963127;28;20251;-81
2021/06/17 12:49:25;;;;;;;;;;;36.60;91.20;;;;;;4958259;28;19997;-81
2021/06/17 12:52:04;;;;;;;;;;;36.60;92.40;;;;;;4959661;28;19930;-79
2021/06/17 12:54:35;;;;;;;;;;;36.60;92.70;;;;;;4954670;28;19923;-81
2021/06/17 12:57:04;;;;;;;;;;;36.60;91.50;;;;;;4955975;28;19946;-80
2021/06/17 12:59:40;;;;;;;;;;;36.50;91.40;;;;;;4957548;29;19945;-80
2021/06/17 13:02:19;;;;;;;;;;;36.40;92.80;;;;;;4955698;29;20433;-83
2021/06/17 13:05:00;;;;;;;;;;;36.50;92.40;;;;;;4963426;28;19962;-81
2021/06/17 13:07:27;;;;;;;;;;;36.60;93.30;;;;;;4960271;29;19934;-82
2021/06/17 13:10:09;;;;;;;;;;;36.70;92.60;;;;;;4959835;28;19922;-82
2021/06/17 13:12:35;;;;;;;;;;;36.60;92.50;;;;;;4961229;28;19950;-81
2021/06/17 13:15:07;;;;;;;;;;;36.60;93.40;;;;;;4960599;29;19922;-83
2021/06/17 13:17:34;;;;;;;;;;;36.70;92.70;;;;;;4962820;28;19962;-81
2021/06/17 13:20:02;;;;;;;;;;;36.80;92.80;;;;;;4965763;28;20352;-81
2021/06/17 13:22:29;;;;;;;;;;;37.00;92.90;;;;;;4964859;28;19922;-81
2021/06/17 13:25:03;;;;;;;;;;;37.20;93.50;;;;;;4971357;28;19922;-82
2021/06/17 13:27:31;;;;;;;;;;;37.10;93.60;;;;;;4968571;28;19922;-82
2021/06/17 13:30:01;;;;;;;;;;;37.20;93.70;;;;;;4969421;28;20346;-79
2021/06/17 13:32:28;;;;;;;;;;;37.10;94.30;;;;;;4965297;28;20414;-79
2021/06/17 13:34:55;;;;;;;;;;;36.90;94.80;;;;;;4958221;28;19946;-81
2021/06/17 13:37:22;;;;;;;;;;;36.60;95.60;;;;;;4972022;28;19929;-81
2021/06/17 13:39:49;;;;;;;;;;;36.40;95.30;;;;;;4950701;29;19946;-81
2021/06/17 13:42:16;;;;;;;;;;;36.40;95.20;;;;;;4950763;29;19923;-79
2021/06/17 13:44:47;;;;;;;;;;;36.40;95.30;;;;;;4948634;29;19922;-81
2021/06/17 13:47:14;;;;;;;;;;;36.30;95.10;;;;;;4948123;29;19929;-82
2021/06/17 13:49:41;;;;;;;;;;;36.30;94.90;;;;;;4948686;29;19999;-83
2021/06/17 13:52:08;;;;;;;;;;;36.20;94.30;;;;;;4964259;28;19926;-82
2021/06/17 13:54:35;;;;;;;;;;;36.10;94.60;;;;;;4964578;28;19945;-80
2021/06/17 13:57:01;;;;;;;;;;;36.10;95.00;;;;;;4966645;29;19922;-82
2021/06/17 13:59:28;;;;;;;;;;;36.10;94.50;;;;;;4966340;28;20469;-82
2021/06/17 14:01:56;;;;;;;;;;;36.20;94.90;;;;;;4967068;28;20040;-79
2021/06/17 14:04:23;;;;;;;;;;;36.20;93.80;;;;;;4967024;28;20066;-82
2021/06/17 14:06:50;;;;;;;;;;;36.30;94.80;;;;;;4965538;29;19922;-81
2021/06/17 14:09:16;;;;;;;;;;;36.30;94.70;;;;;;4964609;28;19930;-80
2021/06/17 14:11:43;;;;;;;;;;;36.30;94.80;;;;;;4967863;28;19922;-82
2021/06/17 14:14:10;;;;;;;;;;;36.30;94.40;;;;;;4966276;29;19922;-82
2021/06/17 14:16:36;;;;;;;;;;;36.20;95.00;;;;;;4966800;29;19922;-82
2021/06/17 14:19:04;;;;;;;;;;;36.10;94.50;;;;;;4968756;28;20453;-82
2021/06/17 14:21:34;;;;;;;;;;;36.10;94.50;;;;;;4968756;29;19911;-81
2021/06/17 14:24:00;;;;;;;;;;;36.10;94.00;;;;;;4968637;28;19922;-81
2021/06/17 14:26:27;;;;;;;;;;;36.00;93.50;;;;;;4968505;28;19990;-81
2021/06/17 14:28:54;;;;;;;;;;;36.00;94.20;;;;;;4950155;29;19922;-80
2021/06/17 14:31:20;;;;;;;;;;;36.00;93.20;;;;;;4946663;29;19969;-80
2021/06/17 14:33:47;;;;;;;;;;;35.90;92.80;;;;;;4945024;29;19945;-81
2021/06/17 14:36:15;;;;;;;;;;;35.80;93.40;;;;;;4952721;29;19958;-80
2021/06/17 14:38:43;;;;;;;;;;;35.80;93.50;;;;;;4945852;29;19961;-81